sensor_id;sensor_type;location;lat;lon;timestamp;temperature;humidity
43808;DHT22;29438;50.664;10.098;2022-10-16T00:01:30;13.50;94.40
43808;DHT22;29438;50.664;10.098;2022-10-16T00:03:57;13.60;94.40
43808;DHT22;29438;50.664;10.098;2022-10-16T00:06:24;13.70;94.30
43808;DHT22;29438;50.664;10.098;2022-10-16T00:08:50;13.70;94.20
43808;DHT22;29438;50.664;10.098;2022-10-16T00:11:20;13.60;94.10
43808;DHT22;29438;50.664;10.098;2022-10-16T00:13:49;13.60;94.00
43808;DHT22;29438;50.664;10.098;2022-10-16T00:16:16;13.50;93.90
43808;DHT22;29438;50.664;10.098;2022-10-16T00:18:42;13.50;93.90
43808;DHT22;29438;50.664;10.098;2022-10-16T00:21:10;13.50;93.90
43808;DHT22;29438;50.664;10.098;2022-10-16T00:23:36;13.50;93.90
43808;DHT22;29438;50.664;10.098;2022-10-16T00:26:05;13.40;93.80
43808;DHT22;29438;50.664;10.098;2022-10-16T00:28:31;13.30;93.70
43808;DHT22;29438;50.664;10.098;2022-10-16T00:30:57;13.20;93.60
43808;DHT22;29438;50.664;10.098;2022-10-16T00:33:22;13.10;93.80
43808;DHT22;29438;50.664;10.098;2022-10-16T00:35:48;13.00;93.70
43808;DHT22;29438;50.664;10.098;2022-10-16T00:38:14;13.00;93.90
43808;DHT22;29438;50.664;10.098;2022-10-16T00:40:40;12.90;93.90
43808;DHT22;29438;50.664;10.098;2022-10-16T00:43:58;12.80;94.00
43808;DHT22;29438;50.664;10.098;2022-10-16T00:46:00;12.80;94.00
43808;DHT22;29438;50.664;10.098;2022-10-16T00:48:26;12.80;93.90
43808;DHT22;29438;50.664;10.098;2022-10-16T00:50:52;12.70;93.80
43808;DHT22;29438;50.664;10.098;2022-10-16T00:53:18;12.60;93.80
43808;DHT22;29438;50.664;10.098;2022-10-16T00:55:44;12.50;93.90
43808;DHT22;29438;50.664;10.098;2022-10-16T00:58:11;12.70;94.00
43808;DHT22;29438;50.664;10.098;2022-10-16T01:00:37;12.70;94.10
43808;DHT22;29438;50.664;10.098;2022-10-16T01:03:21;12.60;94.00
43808;DHT22;29438;50.664;10.098;2022-10-16T01:05:52;12.70;94.10
43808;DHT22;29438;50.664;10.098;2022-10-16T01:08:33;12.70;94.00
43808;DHT22;29438;50.664;10.098;2022-10-16T01:11:06;12.70;94.00
43808;DHT22;29438;50.664;10.098;2022-10-16T01:13:40;12.70;94.00
43808;DHT22;29438;50.664;10.098;2022-10-16T01:16:15;12.70;93.90
43808;DHT22;29438;50.664;10.098;2022-10-16T01:18:51;12.70;94.00
43808;DHT22;29438;50.664;10.098;2022-10-16T01:21:31;12.80;94.00
43808;DHT22;29438;50.664;10.098;2022-10-16T01:32:41;12.90;93.80
43808;DHT22;29438;50.664;10.098;2022-10-16T01:35:18;13.00;93.90
43808;DHT22;29438;50.664;10.098;2022-10-16T01:37:46;13.00;93.90
43808;DHT22;29438;50.664;10.098;2022-10-16T01:40:15;13.10;93.90
43808;DHT22;29438;50.664;10.098;2022-10-16T01:42:46;13.20;93.90
43808;DHT22;29438;50.664;10.098;2022-10-16T01:45:14;13.20;93.70
43808;DHT22;29438;50.664;10.098;2022-10-16T01:47:43;13.30;93.50
43808;DHT22;29438;50.664;10.098;2022-10-16T01:50:10;13.30;93.30
43808;DHT22;29438;50.664;10.098;2022-10-16T01:52:41;13.40;93.00
43808;DHT22;29438;50.664;10.098;2022-10-16T01:55:08;13.40;92.70
43808;DHT22;29438;50.664;10.098;2022-10-16T01:57:38;13.30;92.50
43808;DHT22;29438;50.664;10.098;2022-10-16T02:00:10;13.20;92.60
43808;DHT22;29438;50.664;10.098;2022-10-16T02:02:36;13.10;92.80
43808;DHT22;29438;50.664;10.098;2022-10-16T02:05:43;13.00;92.80
43808;DHT22;29438;50.664;10.098;2022-10-16T02:08:10;12.90;92.90
43808;DHT22;29438;50.664;10.098;2022-10-16T02:10:37;13.00;93.20
43808;DHT22;29438;50.664;10.098;2022-10-16T02:13:19;12.90;93.10
43808;DHT22;29438;50.664;10.098;2022-10-16T02:15:46;12.80;93.20
43808;DHT22;29438;50.664;10.098;2022-10-16T02:18:12;12.80;93.30
43808;DHT22;29438;50.664;10.098;2022-10-16T02:20:52;12.70;93.30
43808;DHT22;29438;50.664;10.098;2022-10-16T02:23:30;12.70;93.40
43808;DHT22;29438;50.664;10.098;2022-10-16T02:25:59;12.70;93.50
43808;DHT22;29438;50.664;10.098;2022-10-16T02:28:34;12.70;93.70
43808;DHT22;29438;50.664;10.098;2022-10-16T02:31:03;12.70;93.80
43808;DHT22;29438;50.664;10.098;2022-10-16T02:33:31;12.70;94.00
43808;DHT22;29438;50.664;10.098;2022-10-16T02:35:57;12.80;94.10
43808;DHT22;29438;50.664;10.098;2022-10-16T02:38:24;12.80;94.20
43808;DHT22;29438;50.664;10.098;2022-10-16T02:40:50;12.80;94.10
43808;DHT22;29438;50.664;10.098;2022-10-16T02:43:16;12.90;94.20
43808;DHT22;29438;50.664;10.098;2022-10-16T02:45:42;13.00;94.20
43808;DHT22;29438;50.664;10.098;2022-10-16T02:48:08;13.00;94.10
43808;DHT22;29438;50.664;10.098;2022-10-16T02:50:34;13.10;94.10
43808;DHT22;29438;50.664;10.098;2022-10-16T02:52:59;13.10;94.00
43808;DHT22;29438;50.664;10.098;2022-10-16T02:55:25;13.20;93.90
43808;DHT22;29438;50.664;10.098;2022-10-16T02:57:50;13.20;93.90
43808;DHT22;29438;50.664;10.098;2022-10-16T03:00:17;13.20;93.90
43808;DHT22;29438;50.664;10.098;2022-10-16T03:02:43;13.30;93.80
43808;DHT22;29438;50.664;10.098;2022-10-16T03:05:09;13.30;93.60
43808;DHT22;29438;50.664;10.098;2022-10-16T03:07:35;13.40;93.50
43808;DHT22;29438;50.664;10.098;2022-10-16T03:10:01;13.40;93.30
43808;DHT22;29438;50.664;10.098;2022-10-16T03:12:29;13.40;93.10
43808;DHT22;29438;50.664;10.098;2022-10-16T03:14:56;13.40;93.00
43808;DHT22;29438;50.664;10.098;2022-10-16T03:17:22;13.40;92.90
43808;DHT22;29438;50.664;10.098;2022-10-16T03:19:48;13.40;92.80
43808;DHT22;29438;50.664;10.098;2022-10-16T03:22:14;13.40;92.80
43808;DHT22;29438;50.664;10.098;2022-10-16T03:24:39;13.50;92.60
43808;DHT22;29438;50.664;10.098;2022-10-16T03:27:05;13.40;92.40
43808;DHT22;29438;50.664;10.098;2022-10-16T03:29:31;13.40;92.40
43808;DHT22;29438;50.664;10.098;2022-10-16T03:31:58;13.30;92.40
43808;DHT22;29438;50.664;10.098;2022-10-16T03:34:24;13.30;92.40
43808;DHT22;29438;50.664;10.098;2022-10-16T03:36:50;13.20;92.40
43808;DHT22;29438;50.664;10.098;2022-10-16T03:39:15;13.20;92.50
43808;DHT22;29438;50.664;10.098;2022-10-16T03:41:41;13.10;92.60
43808;DHT22;29438;50.664;10.098;2022-10-16T03:44:07;13.20;92.80
43808;DHT22;29438;50.664;10.098;2022-10-16T03:46:32;13.10;92.80
43808;DHT22;29438;50.664;10.098;2022-10-16T03:48:58;13.10;92.80
43808;DHT22;29438;50.664;10.098;2022-10-16T03:51:23;13.10;92.80
43808;DHT22;29438;50.664;10.098;2022-10-16T03:53:49;13.00;92.90
43808;DHT22;29438;50.664;10.098;2022-10-16T03:56:15;13.00;93.00
43808;DHT22;29438;50.664;10.098;2022-10-16T03:58:40;13.00;93.20
43808;DHT22;29438;50.664;10.098;2022-10-16T04:01:06;13.10;93.20
43808;DHT22;29438;50.664;10.098;2022-10-16T04:03:32;13.20;93.20
43808;DHT22;29438;50.664;10.098;2022-10-16T04:05:58;13.20;93.10
43808;DHT22;29438;50.664;10.098;2022-10-16T04:08:23;13.20;93.00
43808;DHT22;29438;50.664;10.098;2022-10-16T04:10:49;13.30;93.00
43808;DHT22;29438;50.664;10.098;2022-10-16T04:13:15;13.30;92.90
43808;DHT22;29438;50.664;10.098;2022-10-16T04:15:40;13.30;92.80
43808;DHT22;29438;50.664;10.098;2022-10-16T04:18:06;13.40;92.60
43808;DHT22;29438;50.664;10.098;2022-10-16T04:20:33;13.30;92.60
43808;DHT22;29438;50.664;10.098;2022-10-16T04:22:58;13.40;92.50
43808;DHT22;29438;50.664;10.098;2022-10-16T04:25:24;13.50;92.10
43808;DHT22;29438;50.664;10.098;2022-10-16T04:27:49;13.50;92.00
43808;DHT22;29438;50.664;10.098;2022-10-16T04:30:15;13.50;91.80
43808;DHT22;29438;50.664;10.098;2022-10-16T04:32:41;13.50;91.80
43808;DHT22;29438;50.664;10.098;2022-10-16T04:35:07;13.50;91.80
43808;DHT22;29438;50.664;10.098;2022-10-16T04:37:33;13.50;91.80
43808;DHT22;29438;50.664;10.098;2022-10-16T04:39:58;13.60;91.50
43808;DHT22;29438;50.664;10.098;2022-10-16T04:42:24;13.50;91.50
43808;DHT22;29438;50.664;10.098;2022-10-16T04:44:49;13.50;91.50
43808;DHT22;29438;50.664;10.098;2022-10-16T04:47:15;13.50;91.60
43808;DHT22;29438;50.664;10.098;2022-10-16T04:49:41;13.50;91.80
43808;DHT22;29438;50.664;10.098;2022-10-16T04:52:06;13.50;92.10
43808;DHT22;29438;50.664;10.098;2022-10-16T04:54:33;13.40;92.30
43808;DHT22;29438;50.664;10.098;2022-10-16T04:56:59;13.30;92.60
43808;DHT22;29438;50.664;10.098;2022-10-16T04:59:25;13.30;92.70
43808;DHT22;29438;50.664;10.098;2022-10-16T05:01:50;13.20;92.80
43808;DHT22;29438;50.664;10.098;2022-10-16T05:04:16;13.20;92.90
43808;DHT22;29438;50.664;10.098;2022-10-16T05:06:42;13.20;93.00
43808;DHT22;29438;50.664;10.098;2022-10-16T05:09:07;13.20;93.10
43808;DHT22;29438;50.664;10.098;2022-10-16T05:11:34;13.20;93.10
43808;DHT22;29438;50.664;10.098;2022-10-16T05:14:00;13.10;93.10
43808;DHT22;29438;50.664;10.098;2022-10-16T05:16:25;13.20;93.10
43808;DHT22;29438;50.664;10.098;2022-10-16T05:18:51;13.10;93.20
43808;DHT22;29438;50.664;10.098;2022-10-16T05:21:17;13.10;93.20
43808;DHT22;29438;50.664;10.098;2022-10-16T05:23:43;13.10;93.20
43808;DHT22;29438;50.664;10.098;2022-10-16T05:26:08;13.00;93.30
43808;DHT22;29438;50.664;10.098;2022-10-16T05:28:34;12.90;93.30
43808;DHT22;29438;50.664;10.098;2022-10-16T05:31:07;12.80;93.40
43808;DHT22;29438;50.664;10.098;2022-10-16T05:33:33;12.70;93.50
43808;DHT22;29438;50.664;10.098;2022-10-16T05:36:07;12.70;93.60
43808;DHT22;29438;50.664;10.098;2022-10-16T05:38:35;12.70;93.80
43808;DHT22;29438;50.664;10.098;2022-10-16T05:41:01;12.70;93.90
43808;DHT22;29438;50.664;10.098;2022-10-16T05:43:28;12.60;93.90
43808;DHT22;29438;50.664;10.098;2022-10-16T05:45:58;12.70;94.00
43808;DHT22;29438;50.664;10.098;2022-10-16T05:48:25;12.60;93.90
43808;DHT22;29438;50.664;10.098;2022-10-16T05:51:02;12.50;93.80
43808;DHT22;29438;50.664;10.098;2022-10-16T05:53:29;12.60;93.90
43808;DHT22;29438;50.664;10.098;2022-10-16T05:55:55;12.70;93.90
43808;DHT22;29438;50.664;10.098;2022-10-16T05:58:22;12.70;93.90
43808;DHT22;29438;50.664;10.098;2022-10-16T06:00:59;12.70;93.80
43808;DHT22;29438;50.664;10.098;2022-10-16T06:03:25;12.80;93.80
43808;DHT22;29438;50.664;10.098;2022-10-16T06:05:51;12.80;93.60
43808;DHT22;29438;50.664;10.098;2022-10-16T06:08:17;12.80;93.40
43808;DHT22;29438;50.664;10.098;2022-10-16T06:10:43;12.90;93.20
43808;DHT22;29438;50.664;10.098;2022-10-16T06:13:09;13.00;93.10
43808;DHT22;29438;50.664;10.098;2022-10-16T06:15:35;13.10;93.00
43808;DHT22;29438;50.664;10.098;2022-10-16T06:18:00;13.10;92.80
43808;DHT22;29438;50.664;10.098;2022-10-16T06:20:26;13.20;92.60
43808;DHT22;29438;50.664;10.098;2022-10-16T06:22:51;13.20;92.50
43808;DHT22;29438;50.664;10.098;2022-10-16T06:25:17;13.20;92.50
43808;DHT22;29438;50.664;10.098;2022-10-16T06:27:42;13.20;92.60
43808;DHT22;29438;50.664;10.098;2022-10-16T06:30:08;13.30;92.60
43808;DHT22;29438;50.664;10.098;2022-10-16T06:32:34;13.30;92.60
43808;DHT22;29438;50.664;10.098;2022-10-16T06:35:00;13.30;92.80
43808;DHT22;29438;50.664;10.098;2022-10-16T06:37:27;13.30;92.90
43808;DHT22;29438;50.664;10.098;2022-10-16T06:39:52;13.30;93.00
43808;DHT22;29438;50.664;10.098;2022-10-16T06:42:18;13.40;92.90
43808;DHT22;29438;50.664;10.098;2022-10-16T06:44:44;13.50;92.80
43808;DHT22;29438;50.664;10.098;2022-10-16T06:47:10;13.50;92.80
43808;DHT22;29438;50.664;10.098;2022-10-16T06:49:35;13.60;92.80
43808;DHT22;29438;50.664;10.098;2022-10-16T06:52:01;13.70;92.50
43808;DHT22;29438;50.664;10.098;2022-10-16T06:54:27;13.80;92.20
43808;DHT22;29438;50.664;10.098;2022-10-16T06:56:53;13.90;91.40
43808;DHT22;29438;50.664;10.098;2022-10-16T06:59:22;14.00;91.10
43808;DHT22;29438;50.664;10.098;2022-10-16T07:01:47;14.00;91.00
43808;DHT22;29438;50.664;10.098;2022-10-16T07:04:13;14.10;90.80
43808;DHT22;29438;50.664;10.098;2022-10-16T07:06:39;14.10;90.60
43808;DHT22;29438;50.664;10.098;2022-10-16T07:09:08;14.10;90.90
43808;DHT22;29438;50.664;10.098;2022-10-16T07:11:34;14.20;91.00
43808;DHT22;29438;50.664;10.098;2022-10-16T07:14:01;14.10;90.80
43808;DHT22;29438;50.664;10.098;2022-10-16T07:16:28;14.20;90.80
43808;DHT22;29438;50.664;10.098;2022-10-16T07:18:59;14.20;90.60
43808;DHT22;29438;50.664;10.098;2022-10-16T07:21:27;14.30;90.50
43808;DHT22;29438;50.664;10.098;2022-10-16T07:23:58;14.40;90.30
43808;DHT22;29438;50.664;10.098;2022-10-16T07:26:25;14.40;90.20
43808;DHT22;29438;50.664;10.098;2022-10-16T07:28:51;14.40;90.40
43808;DHT22;29438;50.664;10.098;2022-10-16T07:31:19;14.40;90.40
43808;DHT22;29438;50.664;10.098;2022-10-16T07:33:46;14.40;90.60
43808;DHT22;29438;50.664;10.098;2022-10-16T07:36:13;14.40;90.50
43808;DHT22;29438;50.664;10.098;2022-10-16T07:38:39;14.40;90.50
43808;DHT22;29438;50.664;10.098;2022-10-16T07:41:11;14.40;90.70
43808;DHT22;29438;50.664;10.098;2022-10-16T07:43:37;14.50;90.80
43808;DHT22;29438;50.664;10.098;2022-10-16T07:46:03;14.50;90.80
43808;DHT22;29438;50.664;10.098;2022-10-16T07:48:32;14.70;90.70
43808;DHT22;29438;50.664;10.098;2022-10-16T07:50:59;14.90;90.50
43808;DHT22;29438;50.664;10.098;2022-10-16T07:53:25;15.10;90.20
43808;DHT22;29438;50.664;10.098;2022-10-16T07:55:51;15.20;90.20
43808;DHT22;29438;50.664;10.098;2022-10-16T07:58:16;15.30;89.90
43808;DHT22;29438;50.664;10.098;2022-10-16T08:00:42;15.50;89.60
43808;DHT22;29438;50.664;10.098;2022-10-16T08:03:08;15.80;89.50
43808;DHT22;29438;50.664;10.098;2022-10-16T08:05:34;16.20;88.90
43808;DHT22;29438;50.664;10.098;2022-10-16T08:08:00;16.30;87.60
43808;DHT22;29438;50.664;10.098;2022-10-16T08:10:27;16.30;87.50
43808;DHT22;29438;50.664;10.098;2022-10-16T08:12:53;16.30;87.50
43808;DHT22;29438;50.664;10.098;2022-10-16T08:15:20;16.20;87.60
43808;DHT22;29438;50.664;10.098;2022-10-16T08:17:58;16.10;87.70
43808;DHT22;29438;50.664;10.098;2022-10-16T08:20:25;15.90;88.10
43808;DHT22;29438;50.664;10.098;2022-10-16T08:22:51;15.80;88.70
43808;DHT22;29438;50.664;10.098;2022-10-16T08:25:16;15.70;88.90
43808;DHT22;29438;50.664;10.098;2022-10-16T08:27:42;15.70;89.20
43808;DHT22;29438;50.664;10.098;2022-10-16T08:30:08;15.70;89.10
43808;DHT22;29438;50.664;10.098;2022-10-16T08:32:34;15.90;88.30
43808;DHT22;29438;50.664;10.098;2022-10-16T08:34:59;16.30;87.40
43808;DHT22;29438;50.664;10.098;2022-10-16T08:37:30;16.50;87.40
43808;DHT22;29438;50.664;10.098;2022-10-16T08:39:56;16.70;87.10
43808;DHT22;29438;50.664;10.098;2022-10-16T08:50:38;16.80;86.00
43808;DHT22;29438;50.664;10.098;2022-10-16T08:53:05;17.00;85.30
43808;DHT22;29438;50.664;10.098;2022-10-16T08:55:45;17.10;85.10
43808;DHT22;29438;50.664;10.098;2022-10-16T08:58:13;17.20;85.60
43808;DHT22;29438;50.664;10.098;2022-10-16T09:00:39;17.30;84.50
43808;DHT22;29438;50.664;10.098;2022-10-16T09:03:14;17.40;84.40
43808;DHT22;29438;50.664;10.098;2022-10-16T09:05:54;17.50;83.90
43808;DHT22;29438;50.664;10.098;2022-10-16T09:16:32;17.80;82.80
43808;DHT22;29438;50.664;10.098;2022-10-16T09:19:27;17.70;83.70
43808;DHT22;29438;50.664;10.098;2022-10-16T09:21:57;17.80;84.00
43808;DHT22;29438;50.664;10.098;2022-10-16T09:24:26;18.00;84.80
43808;DHT22;29438;50.664;10.098;2022-10-16T09:26:52;18.20;84.30
43808;DHT22;29438;50.664;10.098;2022-10-16T09:29:20;18.40;83.50
43808;DHT22;29438;50.664;10.098;2022-10-16T09:31:47;18.50;83.60
43808;DHT22;29438;50.664;10.098;2022-10-16T09:34:34;18.40;83.10
43808;DHT22;29438;50.664;10.098;2022-10-16T09:37:04;18.00;83.40
43808;DHT22;29438;50.664;10.098;2022-10-16T09:39:30;17.70;84.50
43808;DHT22;29438;50.664;10.098;2022-10-16T09:41:56;17.30;84.90
43808;DHT22;29438;50.664;10.098;2022-10-16T09:44:28;17.10;86.20
43808;DHT22;29438;50.664;10.098;2022-10-16T09:47:05;16.90;87.10
43808;DHT22;29438;50.664;10.098;2022-10-16T09:49:32;16.90;87.40
43808;DHT22;29438;50.664;10.098;2022-10-16T09:52:24;16.70;87.50
43808;DHT22;29438;50.664;10.098;2022-10-16T09:54:56;16.70;88.10
43808;DHT22;29438;50.664;10.098;2022-10-16T09:57:23;16.60;88.40
43808;DHT22;29438;50.664;10.098;2022-10-16T09:59:54;16.60;89.00
43808;DHT22;29438;50.664;10.098;2022-10-16T10:02:30;16.50;89.20
43808;DHT22;29438;50.664;10.098;2022-10-16T10:04:56;16.50;89.70
43808;DHT22;29438;50.664;10.098;2022-10-16T10:07:27;16.50;89.60
43808;DHT22;29438;50.664;10.098;2022-10-16T10:09:55;16.50;89.60
43808;DHT22;29438;50.664;10.098;2022-10-16T10:12:24;16.30;89.40
43808;DHT22;29438;50.664;10.098;2022-10-16T10:14:55;16.10;90.00
43808;DHT22;29438;50.664;10.098;2022-10-16T10:17:23;15.90;90.60
43808;DHT22;29438;50.664;10.098;2022-10-16T10:19:53;15.90;91.10
43808;DHT22;29438;50.664;10.098;2022-10-16T10:22:43;15.80;91.40
43808;DHT22;29438;50.664;10.098;2022-10-16T10:31:10;15.70;91.90
43808;DHT22;29438;50.664;10.098;2022-10-16T10:33:47;15.60;91.80
43808;DHT22;29438;50.664;10.098;2022-10-16T10:39:18;16.00;91.70
43808;DHT22;29438;50.664;10.098;2022-10-16T10:44:49;15.80;90.90
43808;DHT22;29438;50.664;10.098;2022-10-16T10:47:31;15.80;91.10
43808;DHT22;29438;50.664;10.098;2022-10-16T10:50:19;15.90;90.90
43808;DHT22;29438;50.664;10.098;2022-10-16T10:52:56;15.90;90.90
43808;DHT22;29438;50.664;10.098;2022-10-16T10:55:51;16.00;90.90
43808;DHT22;29438;50.664;10.098;2022-10-16T11:01:16;16.10;90.60
43808;DHT22;29438;50.664;10.098;2022-10-16T11:06:16;16.30;89.90
43808;DHT22;29438;50.664;10.098;2022-10-16T11:11:32;16.20;90.70
43808;DHT22;29438;50.664;10.098;2022-10-16T11:14:03;16.70;90.50
43808;DHT22;29438;50.664;10.098;2022-10-16T11:16:39;17.10;89.10
43808;DHT22;29438;50.664;10.098;2022-10-16T11:22:01;17.00;87.80
43808;DHT22;29438;50.664;10.098;2022-10-16T11:24:45;16.80;88.40
43808;DHT22;29438;50.664;10.098;2022-10-16T11:27:16;16.70;88.70
43808;DHT22;29438;50.664;10.098;2022-10-16T11:29:52;16.70;88.80
43808;DHT22;29438;50.664;10.098;2022-10-16T11:32:23;16.70;88.90
43808;DHT22;29438;50.664;10.098;2022-10-16T11:34:56;16.60;89.30
43808;DHT22;29438;50.664;10.098;2022-10-16T11:37:33;16.60;89.70
43808;DHT22;29438;50.664;10.098;2022-10-16T11:40:17;16.70;89.70
43808;DHT22;29438;50.664;10.098;2022-10-16T11:42:50;16.70;89.40
43808;DHT22;29438;50.664;10.098;2022-10-16T11:45:46;16.70;89.50
43808;DHT22;29438;50.664;10.098;2022-10-16T11:56:15;17.80;88.50
43808;DHT22;29438;50.664;10.098;2022-10-16T12:01:38;17.80;85.10
43808;DHT22;29438;50.664;10.098;2022-10-16T12:07:24;17.60;86.80
43808;DHT22;29438;50.664;10.098;2022-10-16T12:09:50;17.30;86.90
43808;DHT22;29438;50.664;10.098;2022-10-16T12:15:15;17.40;87.10
43808;DHT22;29438;50.664;10.098;2022-10-16T12:17:43;17.60;86.90
43808;DHT22;29438;50.664;10.098;2022-10-16T12:22:40;17.30;85.90
43808;DHT22;29438;50.664;10.098;2022-10-16T12:25:31;17.20;86.90
43808;DHT22;29438;50.664;10.098;2022-10-16T12:28:06;17.20;86.90
43808;DHT22;29438;50.664;10.098;2022-10-16T12:30:35;17.20;86.60
43808;DHT22;29438;50.664;10.098;2022-10-16T12:33:05;17.30;86.50
43808;DHT22;29438;50.664;10.098;2022-10-16T12:35:33;17.70;85.90
43808;DHT22;29438;50.664;10.098;2022-10-16T12:38:08;18.00;85.60
43808;DHT22;29438;50.664;10.098;2022-10-16T12:40:38;18.20;85.40
43808;DHT22;29438;50.664;10.098;2022-10-16T12:48:30;19.20;83.20
43808;DHT22;29438;50.664;10.098;2022-10-16T12:50:56;19.40;82.30
43808;DHT22;29438;50.664;10.098;2022-10-16T12:53:24;19.20;81.50
43808;DHT22;29438;50.664;10.098;2022-10-16T12:56:15;19.40;82.00
43808;DHT22;29438;50.664;10.098;2022-10-16T13:18:15;18.40;83.50
43808;DHT22;29438;50.664;10.098;2022-10-16T13:24:16;18.70;83.90
43808;DHT22;29438;50.664;10.098;2022-10-16T13:29:09;18.50;84.20
43808;DHT22;29438;50.664;10.098;2022-10-16T13:31:38;18.30;84.30
43808;DHT22;29438;50.664;10.098;2022-10-16T13:34:05;18.10;84.40
43808;DHT22;29438;50.664;10.098;2022-10-16T13:36:44;17.80;85.70
43808;DHT22;29438;50.664;10.098;2022-10-16T13:39:14;17.60;85.40
43808;DHT22;29438;50.664;10.098;2022-10-16T13:41:40;17.50;86.10
43808;DHT22;29438;50.664;10.098;2022-10-16T13:44:24;17.20;86.50
43808;DHT22;29438;50.664;10.098;2022-10-16T13:47:00;17.20;86.70
43808;DHT22;29438;50.664;10.098;2022-10-16T13:49:26;17.20;87.60
43808;DHT22;29438;50.664;10.098;2022-10-16T13:51:56;17.20;87.50
43808;DHT22;29438;50.664;10.098;2022-10-16T13:54:24;17.20;87.30
43808;DHT22;29438;50.664;10.098;2022-10-16T13:56:49;17.20;87.20
43808;DHT22;29438;50.664;10.098;2022-10-16T13:59:34;17.20;87.00
43808;DHT22;29438;50.664;10.098;2022-10-16T14:02:08;17.20;87.20
43808;DHT22;29438;50.664;10.098;2022-10-16T14:04:39;17.10;87.40
43808;DHT22;29438;50.664;10.098;2022-10-16T14:07:05;17.10;87.80
43808;DHT22;29438;50.664;10.098;2022-10-16T14:09:31;17.20;87.80
43808;DHT22;29438;50.664;10.098;2022-10-16T14:12:23;17.20;87.40
43808;DHT22;29438;50.664;10.098;2022-10-16T14:14:51;17.10;87.80
43808;DHT22;29438;50.664;10.098;2022-10-16T14:17:31;17.20;87.50
43808;DHT22;29438;50.664;10.098;2022-10-16T14:19:59;17.30;87.60
43808;DHT22;29438;50.664;10.098;2022-10-16T14:22:40;17.20;87.60
43808;DHT22;29438;50.664;10.098;2022-10-16T14:25:23;17.20;87.60
43808;DHT22;29438;50.664;10.098;2022-10-16T14:30:26;17.70;86.90
43808;DHT22;29438;50.664;10.098;2022-10-16T14:33:00;17.50;86.80
43808;DHT22;29438;50.664;10.098;2022-10-16T14:35:32;17.30;87.10
43808;DHT22;29438;50.664;10.098;2022-10-16T14:38:00;17.20;87.50
43808;DHT22;29438;50.664;10.098;2022-10-16T14:40:29;17.20;87.80
43808;DHT22;29438;50.664;10.098;2022-10-16T14:42:55;17.10;87.70
43808;DHT22;29438;50.664;10.098;2022-10-16T14:45:24;16.90;88.00
43808;DHT22;29438;50.664;10.098;2022-10-16T14:47:57;16.80;88.50
43808;DHT22;29438;50.664;10.098;2022-10-16T14:50:23;16.70;89.00
43808;DHT22;29438;50.664;10.098;2022-10-16T14:52:49;16.60;89.30
43808;DHT22;29438;50.664;10.098;2022-10-16T14:55:15;16.60;89.00
43808;DHT22;29438;50.664;10.098;2022-10-16T14:57:40;16.60;89.40
43808;DHT22;29438;50.664;10.098;2022-10-16T15:00:22;16.60;89.50
43808;DHT22;29438;50.664;10.098;2022-10-16T15:02:49;16.50;89.60
43808;DHT22;29438;50.664;10.098;2022-10-16T15:05:21;16.50;89.80
43808;DHT22;29438;50.664;10.098;2022-10-16T15:07:48;16.50;89.90
43808;DHT22;29438;50.664;10.098;2022-10-16T15:10:18;16.50;90.00
43808;DHT22;29438;50.664;10.098;2022-10-16T15:12:44;16.50;89.90
43808;DHT22;29438;50.664;10.098;2022-10-16T15:17:47;16.40;90.10
43808;DHT22;29438;50.664;10.098;2022-10-16T15:20:13;16.40;90.00
43808;DHT22;29438;50.664;10.098;2022-10-16T15:22:38;16.20;90.10
43808;DHT22;29438;50.664;10.098;2022-10-16T15:27:45;16.00;90.60
43808;DHT22;29438;50.664;10.098;2022-10-16T15:30:11;15.90;90.80
43808;DHT22;29438;50.664;10.098;2022-10-16T15:32:36;15.70;90.90
43808;DHT22;29438;50.664;10.098;2022-10-16T15:35:02;15.60;91.00
43808;DHT22;29438;50.664;10.098;2022-10-16T15:37:28;15.50;91.30
43808;DHT22;29438;50.664;10.098;2022-10-16T15:39:53;15.40;91.40
43808;DHT22;29438;50.664;10.098;2022-10-16T15:42:19;15.20;91.50
43808;DHT22;29438;50.664;10.098;2022-10-16T15:44:44;15.20;91.70
43808;DHT22;29438;50.664;10.098;2022-10-16T15:47:10;15.10;91.80
43808;DHT22;29438;50.664;10.098;2022-10-16T15:49:35;15.00;92.00
43808;DHT22;29438;50.664;10.098;2022-10-16T15:52:01;14.90;92.10
43808;DHT22;29438;50.664;10.098;2022-10-16T15:54:26;14.90;92.30
43808;DHT22;29438;50.664;10.098;2022-10-16T15:56:52;14.90;92.60
43808;DHT22;29438;50.664;10.098;2022-10-16T15:59:17;15.00;92.90
43808;DHT22;29438;50.664;10.098;2022-10-16T16:01:43;15.00;93.10
43808;DHT22;29438;50.664;10.098;2022-10-16T16:04:08;15.10;93.20
43808;DHT22;29438;50.664;10.098;2022-10-16T16:06:35;15.10;93.30
43808;DHT22;29438;50.664;10.098;2022-10-16T16:09:21;15.10;93.40
43808;DHT22;29438;50.664;10.098;2022-10-16T16:11:46;15.20;93.40
43808;DHT22;29438;50.664;10.098;2022-10-16T16:14:45;15.20;93.50
43808;DHT22;29438;50.664;10.098;2022-10-16T16:17:50;15.20;93.50
43808;DHT22;29438;50.664;10.098;2022-10-16T16:20:20;15.20;93.50
43808;DHT22;29438;50.664;10.098;2022-10-16T16:22:45;15.10;93.60
43808;DHT22;29438;50.664;10.098;2022-10-16T16:25:11;15.10;93.50
43808;DHT22;29438;50.664;10.098;2022-10-16T16:27:37;15.10;93.50
43808;DHT22;29438;50.664;10.098;2022-10-16T16:30:05;15.00;93.50
43808;DHT22;29438;50.664;10.098;2022-10-16T16:32:33;14.90;93.60
43808;DHT22;29438;50.664;10.098;2022-10-16T16:34:58;14.80;93.70
43808;DHT22;29438;50.664;10.098;2022-10-16T16:37:24;14.70;93.70
43808;DHT22;29438;50.664;10.098;2022-10-16T16:39:50;14.80;93.80
43808;DHT22;29438;50.664;10.098;2022-10-16T16:42:16;14.70;93.90
43808;DHT22;29438;50.664;10.098;2022-10-16T16:44:41;14.70;94.00
43808;DHT22;29438;50.664;10.098;2022-10-16T16:47:07;14.60;94.00
43808;DHT22;29438;50.664;10.098;2022-10-16T16:49:32;14.60;94.10
43808;DHT22;29438;50.664;10.098;2022-10-16T16:51:58;14.50;94.10
43808;DHT22;29438;50.664;10.098;2022-10-16T16:54:24;14.50;94.20
43808;DHT22;29438;50.664;10.098;2022-10-16T16:56:49;14.50;94.20
43808;DHT22;29438;50.664;10.098;2022-10-16T16:59:17;14.40;94.20
43808;DHT22;29438;50.664;10.098;2022-10-16T17:01:45;14.30;94.20
43808;DHT22;29438;50.664;10.098;2022-10-16T17:04:11;14.30;94.20
43808;DHT22;29438;50.664;10.098;2022-10-16T17:06:37;14.20;94.30
43808;DHT22;29438;50.664;10.098;2022-10-16T17:09:04;14.20;94.30
43808;DHT22;29438;50.664;10.098;2022-10-16T17:11:33;14.20;94.40
43808;DHT22;29438;50.664;10.098;2022-10-16T17:14:00;14.20;94.50